createdAt,value
2018-07-01T00:01:12.465Z,47.60
2018-07-01T00:03:40.959Z,48.00
2018-07-01T00:06:10.102Z,47.60
2018-07-01T00:08:39.586Z,49.40
2018-07-01T00:11:08.091Z,47.80
2018-07-01T00:13:36.563Z,48.50
2018-07-01T00:16:05.504Z,47.70
2018-07-01T00:18:34.630Z,48.00
2018-07-01T00:21:03.117Z,48.10
2018-07-01T00:23:31.566Z,47.20
2018-07-01T00:26:00.441Z,47.30
2018-07-01T00:28:29.229Z,47.10
2018-07-01T00:30:59.877Z,47.80
2018-07-01T00:33:28.432Z,48.30
2018-07-01T00:35:57.760Z,48.50
2018-07-01T00:38:26.269Z,50.70
2018-07-01T00:40:54.758Z,48.50
2018-07-01T00:43:23.701Z,49.30
2018-07-01T00:45:52.569Z,50.40
2018-07-01T00:48:21.734Z,50.30
2018-07-01T00:50:50.300Z,50.10
2018-07-01T00:53:18.826Z,49.10
2018-07-01T00:55:47.927Z,50.60
2018-07-01T00:58:17.037Z,53.30
2018-07-01T01:00:45.490Z,52.40
2018-07-01T01:03:13.970Z,52.60
2018-07-01T01:05:42.934Z,53.90
2018-07-01T01:08:11.897Z,54.70
2018-07-01T01:10:40.748Z,56.40
2018-07-01T01:13:09.706Z,57.40
2018-07-01T01:15:38.297Z,57.50
2018-07-01T01:18:06.977Z,66.10
2018-07-01T01:20:36.133Z,71.50
2018-07-01T01:23:04.737Z,92.20
2018-07-01T01:25:33.480Z,89.40
2018-07-01T01:28:02.164Z,90.40
2018-07-01T01:30:30.881Z,84.10
2018-07-01T01:32:59.405Z,92.00
2018-07-01T01:35:28.011Z,91.50
2018-07-01T01:37:56.868Z,96.00
2018-07-01T01:40:29.672Z,99.90
2018-07-01T01:43:02.694Z,99.90
2018-07-01T01:45:35.733Z,99.90
2018-07-01T01:49:07.314Z,99.90
2018-07-01T01:51:41.970Z,99.90
2018-07-01T01:55:14.405Z,99.90
2018-07-01T01:57:49.896Z,99.90
2018-07-01T02:00:23.073Z,99.90
2018-07-01T02:03:00.421Z,99.90
2018-07-01T02:05:36.189Z,99.90
2018-07-01T02:08:06.877Z,99.90
2018-07-01T02:10:35.429Z,99.90
2018-07-01T02:13:03.926Z,99.90
2018-07-01T02:15:37.563Z,99.90
2018-07-01T02:18:06.193Z,99.90
2018-07-01T02:20:37.482Z,99.90
2018-07-01T02:23:11.630Z,99.90
2018-07-01T02:25:41.344Z,99.90
2018-07-01T02:28:10.245Z,99.90
2018-07-01T02:30:38.844Z,99.90
2018-07-01T02:33:07.346Z,99.90
2018-07-01T02:35:36.374Z,99.90
2018-07-01T02:38:05.035Z,99.90
2018-07-01T02:40:33.505Z,99.90
2018-07-01T02:43:03.082Z,99.90
2018-07-01T02:45:32.149Z,99.90
2018-07-01T02:48:00.634Z,99.90
2018-07-01T02:50:29.097Z,99.90
2018-07-01T02:52:58.459Z,99.90
2018-07-01T02:55:27.078Z,99.90
2018-07-01T02:57:55.683Z,99.90
2018-07-01T03:00:24.139Z,99.90
2018-07-01T03:02:53.063Z,99.90
2018-07-01T03:05:21.902Z,99.90
2018-07-01T03:07:50.402Z,99.90
2018-07-01T03:10:19.159Z,99.90
2018-07-01T03:12:48.182Z,99.90
2018-07-01T03:15:16.883Z,99.90
2018-07-01T03:17:45.370Z,99.90
2018-07-01T03:20:14.308Z,99.90
2018-07-01T03:22:43.043Z,99.90
2018-07-01T03:25:11.526Z,99.90
2018-07-01T03:27:40.907Z,99.90
2018-07-01T03:30:09.369Z,99.90
2018-07-01T03:32:37.862Z,99.90
2018-07-01T03:35:06.858Z,99.90
2018-07-01T03:37:35.882Z,99.90
2018-07-01T03:40:04.897Z,99.90
2018-07-01T03:42:33.374Z,99.90
2018-07-01T03:45:02.270Z,99.90
2018-07-01T03:47:31.471Z,99.90
2018-07-01T03:49:59.954Z,99.90
2018-07-01T03:52:28.393Z,99.90
2018-07-01T03:54:57.214Z,99.90
2018-07-01T03:57:26.190Z,99.90
2018-07-01T03:59:54.689Z,99.90
2018-07-01T04:02:23.256Z,99.90
2018-07-01T04:04:51.963Z,99.90
2018-07-01T04:07:20.835Z,99.90
2018-07-01T04:09:49.305Z,99.90
2018-07-01T04:12:18.100Z,99.90
2018-07-01T04:14:46.571Z,99.90
2018-07-01T04:17:15.038Z,99.90
2018-07-01T04:19:43.958Z,99.90
2018-07-01T04:22:12.728Z,99.90
2018-07-01T04:24:41.158Z,99.90
2018-07-01T04:27:09.799Z,99.90
2018-07-01T04:29:39.259Z,99.90
2018-07-01T04:32:09.274Z,99.90
2018-07-01T04:34:39.913Z,99.90
2018-07-01T04:37:15.146Z,99.90
2018-07-01T04:39:45.213Z,99.90
2018-07-01T04:42:15.212Z,99.90
2018-07-01T04:44:45.731Z,99.90
2018-07-01T04:47:14.225Z,99.90
2018-07-01T04:49:42.662Z,99.90
2018-07-01T04:52:11.109Z,99.90
2018-07-01T04:54:41.053Z,99.90
2018-07-01T04:57:12.059Z,99.90
2018-07-01T04:59:40.497Z,99.90
2018-07-01T05:04:40.604Z,67.70
2018-07-01T05:07:09.462Z,58.50
2018-07-01T05:09:37.874Z,61.40
2018-07-01T05:12:09.869Z,55.10
2018-07-01T05:14:39.358Z,50.80
2018-07-01T05:19:39.074Z,48.80
2018-07-01T05:22:09.275Z,46.70
2018-07-01T05:24:37.679Z,43.10
2018-07-01T05:27:06.194Z,42.80
2018-07-01T05:29:34.600Z,43.10
2018-07-01T05:32:03.033Z,41.10
2018-07-01T05:34:35.791Z,41.50
2018-07-01T05:37:04.579Z,40.30
2018-07-01T05:39:36.313Z,40.00
2018-07-01T05:42:06.948Z,39.20
2018-07-01T05:44:35.355Z,41.00
2018-07-01T05:47:03.859Z,40.10
2018-07-01T05:49:33.609Z,39.90
2018-07-01T05:52:02.848Z,39.70
2018-07-01T05:54:31.399Z,38.70
2018-07-01T05:56:59.837Z,38.80
2018-07-01T05:59:28.371Z,38.20
2018-07-01T06:01:58.994Z,38.30
2018-07-01T06:04:28.394Z,38.70
2018-07-01T06:06:56.838Z,39.00
2018-07-01T06:09:25.246Z,38.70
2018-07-01T06:11:54.320Z,39.50
2018-07-01T06:14:25.502Z,38.00
2018-07-01T06:16:54.819Z,37.70
2018-07-01T06:19:23.237Z,38.70
2018-07-01T06:21:51.644Z,38.00
2018-07-01T06:24:22.177Z,37.10
2018-07-01T06:26:52.271Z,37.30
2018-07-01T06:29:21.317Z,36.60
2018-07-01T06:31:52.050Z,37.90
2018-07-01T06:34:21.774Z,37.20
2018-07-01T06:36:51.247Z,36.20
2018-07-01T06:39:21.754Z,36.70
2018-07-01T06:41:51.616Z,35.90
2018-07-01T06:44:21.230Z,36.90
2018-07-01T06:46:51.579Z,36.30
2018-07-01T06:49:21.688Z,36.10
2018-07-01T06:51:51.710Z,36.40
2018-07-01T06:54:21.535Z,36.70
2018-07-01T06:56:50.612Z,37.60
2018-07-01T06:59:21.207Z,36.70
2018-07-01T07:01:51.591Z,36.90
2018-07-01T07:04:20.506Z,34.60
2018-07-01T07:06:49.602Z,35.60
2018-07-01T07:09:18.768Z,36.20
2018-07-01T07:11:48.410Z,36.30
2018-07-01T07:14:18.520Z,35.40
2018-07-01T07:16:50.369Z,36.10
2018-07-01T07:19:20.541Z,34.70
2018-07-01T07:21:49.582Z,35.60
2018-07-01T07:24:19.173Z,35.00
2018-07-01T07:26:48.963Z,35.80
2018-07-01T07:29:18.089Z,35.60
2018-07-01T07:31:46.669Z,34.90
2018-07-01T07:34:15.525Z,35.50
2018-07-01T07:36:46.378Z,35.30
2018-07-01T07:39:15.501Z,35.10
2018-07-01T07:41:43.914Z,34.20
2018-07-01T07:44:12.399Z,35.10
2018-07-01T07:46:43.574Z,34.50
2018-07-01T07:49:12.578Z,34.40
2018-07-01T07:51:40.987Z,33.40
2018-07-01T07:54:10.370Z,34.20
2018-07-01T07:56:41.517Z,32.50
2018-07-01T07:59:09.986Z,33.30
2018-07-01T08:01:38.453Z,32.70
2018-07-01T08:04:07.098Z,32.40
2018-07-01T08:06:35.513Z,33.10
2018-07-01T08:09:06.414Z,33.40
2018-07-01T08:11:34.850Z,33.00
2018-07-01T08:14:04.672Z,33.70
2018-07-01T08:16:35.085Z,32.90
2018-07-01T08:19:03.520Z,32.70
2018-07-01T08:21:35.119Z,32.70
2018-07-01T08:24:03.674Z,34.00
2018-07-01T08:26:35.348Z,33.50
2018-07-01T08:29:03.968Z,33.50
2018-07-01T08:31:34.210Z,32.80
2018-07-01T08:34:02.681Z,33.80
2018-07-01T08:36:31.127Z,32.40
2018-07-01T08:39:00.921Z,32.00
2018-07-01T08:41:35.089Z,33.70
2018-07-01T08:44:04.883Z,32.30
2018-07-01T08:46:34.409Z,32.20
2018-07-01T08:49:03.530Z,32.30
2018-07-01T08:51:31.963Z,31.70
2018-07-01T08:54:00.541Z,31.80
2018-07-01T08:56:30.039Z,31.20
2018-07-01T08:58:58.486Z,31.90
2018-07-01T09:01:28.006Z,31.00
2018-07-01T09:03:56.902Z,30.80
2018-07-01T09:06:26.147Z,31.10
2018-07-01T09:08:54.737Z,31.30
2018-07-01T09:11:23.749Z,31.40
2018-07-01T09:13:52.576Z,30.30
2018-07-01T09:16:23.402Z,31.10
2018-07-01T09:18:51.937Z,29.40
2018-07-01T09:21:20.592Z,29.90
2018-07-01T09:23:49.947Z,30.00
2018-07-01T09:26:20.937Z,30.00
2018-07-01T09:28:49.341Z,30.00
2018-07-01T09:31:17.757Z,30.20
2018-07-01T09:33:47.253Z,30.60
2018-07-01T09:36:15.903Z,30.80
2018-07-01T09:38:50.062Z,31.00
2018-07-01T09:41:21.263Z,31.00
2018-07-01T09:43:51.762Z,31.30
2018-07-01T09:46:20.561Z,31.10
2018-07-01T09:48:48.997Z,31.20
2018-07-01T09:51:18.228Z,31.30
2018-07-01T09:53:50.025Z,30.60
2018-07-01T09:56:18.417Z,32.00
2018-07-01T09:58:48.193Z,31.10
2018-07-01T10:01:16.595Z,30.00
2018-07-01T10:03:45.035Z,30.40
2018-07-01T10:06:13.699Z,30.70
2018-07-01T10:08:42.466Z,30.00
2018-07-01T10:11:12.335Z,29.80
2018-07-01T10:13:41.508Z,31.50
2018-07-01T10:16:10.277Z,29.80
2018-07-01T10:18:39.139Z,29.50
2018-07-01T10:21:07.570Z,30.00
2018-07-01T10:23:37.197Z,29.90
2018-07-01T10:26:05.754Z,29.90
2018-07-01T10:28:34.306Z,29.80
2018-07-01T10:31:03.090Z,29.60
2018-07-01T10:33:31.882Z,29.40
2018-07-01T10:36:00.352Z,30.90
2018-07-01T10:38:29.423Z,30.00
2018-07-01T10:40:58.918Z,29.60
2018-07-01T10:43:28.245Z,29.20
2018-07-01T10:45:56.918Z,29.70
2018-07-01T10:48:25.389Z,29.20
2018-07-01T10:50:54.183Z,29.30
2018-07-01T10:53:23.594Z,29.40
2018-07-01T10:55:52.109Z,28.90
2018-07-01T10:58:20.542Z,28.80
2018-07-01T11:00:49.490Z,29.30
2018-07-01T11:03:18.787Z,29.50
2018-07-01T11:05:47.264Z,30.20
2018-07-01T11:08:15.706Z,29.50
2018-07-01T11:10:44.944Z,29.40
2018-07-01T11:13:13.558Z,29.20
2018-07-01T11:15:42.023Z,29.10
2018-07-01T11:18:11.037Z,29.40
2018-07-01T11:20:39.756Z,28.80
2018-07-01T11:23:08.197Z,29.30
2018-07-01T11:25:36.814Z,29.30
2018-07-01T11:28:06.934Z,30.00
2018-07-01T11:30:36.002Z,29.00
2018-07-01T11:33:04.482Z,28.90
2018-07-01T11:35:33.664Z,28.80
2018-07-01T11:38:02.239Z,29.60
2018-07-01T11:40:33.241Z,28.20
2018-07-01T11:43:01.693Z,28.90
2018-07-01T11:45:31.798Z,28.90
2018-07-01T11:48:00.242Z,29.30
2018-07-01T11:50:28.708Z,28.40
2018-07-01T11:52:59.168Z,30.00
2018-07-01T11:55:28.541Z,29.40
2018-07-01T11:57:57.066Z,29.40
2018-07-01T12:00:25.495Z,29.40
2018-07-01T12:05:25.160Z,29.40
2018-07-01T12:07:53.887Z,29.20
2018-07-01T12:10:22.830Z,29.00
2018-07-01T12:12:52.067Z,28.50
2018-07-01T12:15:22.483Z,29.70
2018-07-01T12:17:50.868Z,29.00
2018-07-01T12:20:19.495Z,28.40
2018-07-01T12:22:48.226Z,28.80
2018-07-01T12:25:17.243Z,29.40
2018-07-01T12:27:46.360Z,28.90
2018-07-01T12:30:16.253Z,28.70
2018-07-01T12:32:45.421Z,29.90
2018-07-01T12:35:13.874Z,28.20
2018-07-01T12:37:42.893Z,28.60
2018-07-01T12:40:11.318Z,28.80
2018-07-01T12:42:40.354Z,29.10
2018-07-01T12:45:09.504Z,29.10
2018-07-01T12:47:38.435Z,28.80
2018-07-01T12:50:07.779Z,29.40
2018-07-01T12:52:36.190Z,28.50
2018-07-01T12:55:05.297Z,29.00
2018-07-01T12:57:34.444Z,29.60
2018-07-01T13:00:02.978Z,29.00
2018-07-01T13:02:32.314Z,29.00
2018-07-01T13:05:00.844Z,30.30
2018-07-01T13:07:29.269Z,30.10
2018-07-01T13:09:57.990Z,29.30
2018-07-01T13:12:26.829Z,29.70
2018-07-01T13:14:55.365Z,29.60
2018-07-01T13:17:23.968Z,29.60
2018-07-01T13:19:52.426Z,29.70
2018-07-01T13:22:21.036Z,28.80
2018-07-01T13:24:49.458Z,29.10
2018-07-01T13:27:26.865Z,29.80
2018-07-01T13:29:55.490Z,30.10
2018-07-01T13:32:23.908Z,30.10
2018-07-01T13:34:52.349Z,30.40
2018-07-01T13:37:20.805Z,30.90
2018-07-01T13:39:49.506Z,31.30
2018-07-01T13:47:20.277Z,31.30
2018-07-01T13:49:58.545Z,31.80
2018-07-01T13:52:27.307Z,31.30
2018-07-01T13:54:58.852Z,30.90
2018-07-01T13:57:28.499Z,30.70
2018-07-01T13:59:58.315Z,30.50
2018-07-01T14:02:29.482Z,31.00
2018-07-01T14:04:59.812Z,30.80
2018-07-01T14:07:29.769Z,30.80
2018-07-01T14:09:58.244Z,31.80
2018-07-01T14:12:26.712Z,31.60
2018-07-01T14:14:55.129Z,31.80
2018-07-01T14:17:23.701Z,31.60
2018-07-01T14:19:52.244Z,32.40
2018-07-01T14:22:20.662Z,31.90
2018-07-01T14:24:49.442Z,31.20
2018-07-01T14:27:17.881Z,31.20
2018-07-01T14:29:46.303Z,31.50
2018-07-01T14:32:14.945Z,31.40
2018-07-01T14:34:43.370Z,31.40
2018-07-01T14:37:11.808Z,31.20
2018-07-01T14:39:40.275Z,31.90
2018-07-01T14:42:08.825Z,32.00
2018-07-01T14:44:37.354Z,31.70
2018-07-01T14:47:05.788Z,31.40
2018-07-01T14:49:34.402Z,31.30
2018-07-01T14:52:02.967Z,31.80
2018-07-01T14:54:31.393Z,32.00
2018-07-01T14:56:59.798Z,32.30
2018-07-01T14:59:28.253Z,32.50
2018-07-01T15:02:02.785Z,32.70
2018-07-01T15:04:32.100Z,33.40
2018-07-01T15:07:01.301Z,31.50
2018-07-01T15:09:30.437Z,32.10
2018-07-01T15:11:58.918Z,32.80
2018-07-01T15:14:27.771Z,33.00
2018-07-01T15:16:56.506Z,32.70
2018-07-01T15:19:24.940Z,32.10
2018-07-01T15:21:53.362Z,32.20
2018-07-01T15:24:21.741Z,32.10
2018-07-01T15:26:50.385Z,33.10
2018-07-01T15:29:19.934Z,31.40
2018-07-01T15:31:49.725Z,31.70
2018-07-01T15:34:19.239Z,32.90
2018-07-01T15:36:48.733Z,31.70
2018-07-01T15:39:18.106Z,33.60
2018-07-01T15:41:47.362Z,32.80
2018-07-01T15:44:16.687Z,33.00
2018-07-01T15:46:46.199Z,32.80
2018-07-01T15:49:14.708Z,33.00
2018-07-01T15:51:43.588Z,32.50
2018-07-01T15:54:12.638Z,33.10
2018-07-01T15:56:41.842Z,32.70
2018-07-01T16:01:40.068Z,33.40
2018-07-01T16:04:09.459Z,33.00
2018-07-01T16:06:38.702Z,32.30
2018-07-01T16:09:10.532Z,32.30
2018-07-01T16:11:40.223Z,32.80
2018-07-01T16:14:09.551Z,33.70
2018-07-01T16:16:38.936Z,32.70
2018-07-01T16:19:23.934Z,32.80
2018-07-01T16:21:53.285Z,32.70
2018-07-01T16:24:22.518Z,33.10
2018-07-01T16:27:00.654Z,32.70
2018-07-01T16:29:30.231Z,33.80
2018-07-01T16:31:59.309Z,33.10
2018-07-01T16:34:28.600Z,33.40
2018-07-01T16:36:58.069Z,33.50
2018-07-01T16:39:27.416Z,32.90
2018-07-01T16:41:57.973Z,33.10
2018-07-01T16:44:27.832Z,33.00
2018-07-01T16:46:56.577Z,32.90
2018-07-01T16:49:25.191Z,33.40
2018-07-01T16:51:53.998Z,34.30
2018-07-01T16:54:22.717Z,33.00
2018-07-01T16:56:51.169Z,33.00
2018-07-01T16:59:19.625Z,33.40
2018-07-01T17:01:48.157Z,32.30
2018-07-01T17:04:16.958Z,32.80
2018-07-01T17:06:45.566Z,33.30
2018-07-01T17:09:13.994Z,33.90
2018-07-01T17:11:49.131Z,33.80
2018-07-01T17:14:18.565Z,33.60
2018-07-01T17:16:47.853Z,34.20
2018-07-01T17:19:19.651Z,34.60
2018-07-01T17:21:48.612Z,34.30
2018-07-01T17:24:17.423Z,34.00
2018-07-01T17:26:46.191Z,34.60
2018-07-01T17:29:14.889Z,34.10
2018-07-01T17:31:48.953Z,35.20
2018-07-01T17:34:17.415Z,34.10
2018-07-01T17:36:46.138Z,34.30
2018-07-01T17:39:14.668Z,34.70
2018-07-01T17:41:43.098Z,34.80
2018-07-01T17:44:12.113Z,34.50
2018-07-01T17:46:41.365Z,34.30
2018-07-01T17:49:10.482Z,34.60
2018-07-01T17:51:38.970Z,34.80
2018-07-01T17:54:07.722Z,35.10
2018-07-01T17:56:37.798Z,35.60
2018-07-01T17:59:06.233Z,34.60
2018-07-01T18:01:35.750Z,35.10
2018-07-01T18:04:05.881Z,35.70
2018-07-01T18:06:35.103Z,35.90
2018-07-01T18:09:05.509Z,35.60
2018-07-01T18:11:34.698Z,35.50
2018-07-01T18:14:03.314Z,35.80
2018-07-01T18:16:31.867Z,35.70
2018-07-01T18:19:00.634Z,35.60
2018-07-01T18:21:40.296Z,35.90
2018-07-01T18:24:27.544Z,35.90
2018-07-01T18:26:28.225Z,35.60
2018-07-01T18:29:05.472Z,36.30
2018-07-01T18:31:26.215Z,36.70
2018-07-01T18:33:54.614Z,36.60
2018-07-01T18:36:23.013Z,36.40
2018-07-01T18:38:51.428Z,36.50
2018-07-01T18:41:19.824Z,37.40
2018-07-01T18:43:48.317Z,37.00
2018-07-01T18:46:17.640Z,37.20
2018-07-01T18:48:49.358Z,37.70
2018-07-01T18:51:19.013Z,37.40
2018-07-01T18:53:47.601Z,37.70
2018-07-01T18:56:16.666Z,37.60
2018-07-01T18:58:45.152Z,37.40
2018-07-01T19:01:13.636Z,37.60
2018-07-01T19:03:42.169Z,38.20
2018-07-01T19:06:10.925Z,38.20
2018-07-01T19:08:40.805Z,38.00
2018-07-01T19:11:10.640Z,38.90
2018-07-01T19:13:39.998Z,38.70
2018-07-01T19:16:09.293Z,38.70
2018-07-01T19:18:38.689Z,38.30
2018-07-01T19:21:09.285Z,39.50
2018-07-01T19:23:39.192Z,39.30
2018-07-01T19:26:09.045Z,38.90
2018-07-01T19:28:38.406Z,40.20
2018-07-01T19:31:07.544Z,40.90
2018-07-01T19:33:36.275Z,40.50
2018-07-01T19:36:05.093Z,41.10
2018-07-01T19:38:34.037Z,42.50
2018-07-01T19:41:03.241Z,43.10
2018-07-01T19:43:32.217Z,42.20
2018-07-01T19:46:00.559Z,40.90
2018-07-01T19:48:29.427Z,41.40
2018-07-01T19:50:58.594Z,42.30
2018-07-01T19:53:27.946Z,41.60
2018-07-01T19:55:57.424Z,41.60
2018-07-01T19:58:26.583Z,40.50
2018-07-01T20:00:55.311Z,39.90
2018-07-01T20:03:24.826Z,39.50
2018-07-01T20:05:54.288Z,40.10
2018-07-01T20:08:23.649Z,39.70
2018-07-01T20:13:21.334Z,38.90
2018-07-01T20:15:49.886Z,40.10
2018-07-01T20:18:19.278Z,40.10
2018-07-01T20:20:48.091Z,39.50
2018-07-01T20:23:16.653Z,39.90
2018-07-01T20:25:45.526Z,40.30
2018-07-01T20:28:15.360Z,42.50
2018-07-01T20:30:59.760Z,43.90
2018-07-01T20:33:28.269Z,45.30
2018-07-01T20:35:57.194Z,46.70
2018-07-01T20:38:26.453Z,47.00
2018-07-01T20:40:56.098Z,49.30
2018-07-01T20:43:24.553Z,50.60
2018-07-01T20:45:53.240Z,49.80
2018-07-01T20:48:21.644Z,50.60
2018-07-01T20:50:50.063Z,50.30
2018-07-01T20:53:20.676Z,50.50
2018-07-01T20:55:49.107Z,46.70
2018-07-01T20:58:17.646Z,47.40
2018-07-01T21:00:46.062Z,45.70
2018-07-01T21:03:14.625Z,43.10
2018-07-01T21:05:43.128Z,42.60
2018-07-01T21:08:11.653Z,41.80
2018-07-01T21:10:40.116Z,41.60
2018-07-01T21:13:08.819Z,41.40
2018-07-01T21:15:38.339Z,41.40
2018-07-01T21:18:06.806Z,40.90
2018-07-01T21:20:35.316Z,41.00
2018-07-01T21:23:03.908Z,41.70
2018-07-01T21:28:00.578Z,40.90
2018-07-01T21:30:30.302Z,40.70
2018-07-01T21:32:59.236Z,40.70
2018-07-01T21:35:27.787Z,41.30
2018-07-01T21:37:56.464Z,41.70
2018-07-01T21:40:32.874Z,40.80
2018-07-01T21:43:01.559Z,40.80
2018-07-01T21:45:30.031Z,41.70
2018-07-01T21:47:58.666Z,41.90
2018-07-01T21:50:27.225Z,41.40
2018-07-01T21:52:55.682Z,42.20
2018-07-01T21:55:25.328Z,43.40
2018-07-01T21:57:56.141Z,45.60
2018-07-01T22:00:31.128Z,46.30
2018-07-01T22:03:08.518Z,44.80
2018-07-01T22:05:37.088Z,46.20
2018-07-01T22:08:05.546Z,47.80
2018-07-01T22:11:42.997Z,48.60
2018-07-01T22:14:21.462Z,50.30
2018-07-01T22:16:49.953Z,51.80
2018-07-01T22:19:19.063Z,53.00
2018-07-01T22:21:48.909Z,55.50
2018-07-01T22:24:18.707Z,57.10
2018-07-01T22:26:47.411Z,64.70
2018-07-01T22:29:17.287Z,65.90
2018-07-01T22:31:46.221Z,76.90
2018-07-01T22:34:16.791Z,91.40
2018-07-01T22:36:46.488Z,95.30
2018-07-01T22:39:30.654Z,98.10
2018-07-01T22:42:00.737Z,99.90
2018-07-01T22:44:30.182Z,99.90
2018-07-01T22:46:59.494Z,99.90
2018-07-01T22:49:28.409Z,99.90
2018-07-01T22:51:57.682Z,99.90
2018-07-01T22:54:26.470Z,99.90
2018-07-01T22:56:55.664Z,99.90
2018-07-01T22:59:24.957Z,99.90
2018-07-01T23:03:04.881Z,99.90
2018-07-01T23:05:34.217Z,99.90
2018-07-01T23:08:03.378Z,99.90
2018-07-01T23:10:32.705Z,99.90
2018-07-01T23:13:02.126Z,99.90
2018-07-01T23:15:31.354Z,99.90
2018-07-01T23:18:00.481Z,99.90
2018-07-01T23:20:29.376Z,99.90
2018-07-01T23:22:58.465Z,99.90
2018-07-01T23:25:27.557Z,99.90
2018-07-01T23:27:56.431Z,99.90
2018-07-01T23:30:25.624Z,99.90
2018-07-01T23:32:54.749Z,99.90
2018-07-01T23:35:34.708Z,99.90
2018-07-01T23:38:03.887Z,99.90
2018-07-01T23:40:32.814Z,99.90
2018-07-01T23:43:01.982Z,99.90
2018-07-01T23:45:30.814Z,99.90
2018-07-01T23:47:59.731Z,99.90
2018-07-01T23:50:28.686Z,99.90
2018-07-01T23:52:57.802Z,99.90
2018-07-01T23:57:55.111Z,99.90
